Flight Track Log - Related Links

Times and Time Zones

All times are in EDT time to prevent confusion due to time zone crossing. See the N147SW flight status page for this flight to view local times or setup timezone preferences in your user account.

Time Position Orientation Groundspeed Altitude Reporting Facility
EDT Latitude Longitude Course Direction KTS MPH feet Rate Location/Type
Wed 03:00:39 PM 32.8667 -96.8667 320° Northwest 160 184 2,300  Level Dallas / Fort Worth TRACON
Wed 03:01:04 PM 32.8833 -96.8833 320° Northwest 153 176 4,500 4,143 Climbing Dallas / Fort Worth TRACON
Wed 03:02:03 PM 32.8833 -96.9333 270° West 214 246 8,100 2,826 Climbing Dallas / Fort Worth TRACON
Wed 03:03:05 PM 32.8689 -96.9981 255° West 229 264 10,200 2,710 Climbing Fort Worth Center
Wed 03:04:07 PM 32.7936 -97.0389 205° Southwest 314 361 13,700 2,952 Climbing Fort Worth Center
Wed 03:05:09 PM 32.6944 -97.0431 182° South 352 405 16,300 1,597 Climbing Fort Worth Center
Wed 03:06:11 PM 32.5839 -97.0486 182° South 395 455 17,000 1,790 Climbing Fort Worth Center
Wed 03:07:13 PM 32.4600 -97.0506 181° South 427 491 20,000 2,419 Climbing Fort Worth Center
Wed 03:08:15 PM 32.3456 -97.0556 182° South 386 444 22,000 968 Climbing Fort Worth Center
Wed 03:09:17 PM 32.2308 -97.0611 182° South 409 471 22,000  Level Fort Worth Center
Wed 03:10:20 PM 32.1181 -97.0633 181° South 424 488 22,000  Level Fort Worth Center
Wed 03:11:22 PM 31.9975 -97.0669 181° South 431 496 22,000  Level Fort Worth Center
Wed 03:12:24 PM 31.8539 -97.0719 182° South 431 496 22,000  Level Fort Worth Center
Wed 03:13:26 PM 31.7350 -97.0747 181° South 430 495 22,000  Level Fort Worth Center
Wed 03:14:28 PM 31.6161 -97.0803 182° South 429 494 22,000  Level Fort Worth Center
Wed 03:15:30 PM 31.5006 -97.0942 186° South 428 493 22,000  Level Fort Worth Center
Wed 03:16:32 PM 31.3925 -97.1358 198° South 413 475 22,000  Level Fort Worth Center
Wed 03:17:34 PM 31.2825 -97.1786 198° South 412 474 22,000 -968 Level Fort Worth Center
Wed 03:18:36 PM 31.1475 -97.2322 199° South 422 486 20,000 -2,016 Descending Fort Worth Center
Wed 03:19:39 PM 31.0394 -97.2753 199° South 422 486 17,800 -2,112 Descending Fort Worth Center
Wed 03:20:41 PM 30.9303 -97.3172 198° South 411 473 15,600 -2,226 Descending Fort Worth Center
Wed 03:21:43 PM 30.8131 -97.3625 198° South 408 470 13,200 -1,667 Descending Fort Worth Center
Wed 03:22:29 PM 30.7547 -97.3853 199° South 389 448 12,600 -1,444 Descending Houston Center
Wed 03:23:31 PM 30.6364 -97.4311 198° South 377 434 10,600 -1,210 Descending Houston Center
Wed 03:24:33 PM 30.5369 -97.4700 199° South 377 434 10,100 -1,008 Descending Houston Center
Wed 03:25:36 PM 30.4592 -97.4983 197° South 306 352 8,500 -1,008 Descending Houston Center
Wed 03:26:38 PM 30.3822 -97.5283 199° South 295 339 8,000 -871 Descending Houston Center
Wed 03:27:40 PM 30.2967 -97.5317 182° South 307 353 6,700 -1,452 Descending Houston Center
Wed 03:28:42 PM 30.1953 -97.5358 182° South 308 354 5,000 -1,500 Descending Houston Center
Wed 03:29:44 PM 30.1339 -97.5733 208° Southwest 285 328 3,600 -1,065 Descending Houston Center
Wed 03:30:46 PM 30.1367 -97.6394 273° West 221 254 2,800 -1,056 Descending Houston Center
Wed 03:31:49 PM 30.1722 -97.6597 334° Northwest 190 219 1,400 -1,333 Descending Houston Center
Wed 03:34:00 PM 30.1833 -97.6667 300° West  Level FlightAware Approximate

Login

Don't have an account? Register now (free) for customized features, flight alerts, and more!